sensor_id;sensor_type;location;lat;lon;timestamp;pressure;altitude;pressure_sealevel;temperature;humidity
55679;BME280;41573;51.446;-2.018;2023-09-07T00:00:34;100623.16;;;21.54;100.00
55679;BME280;41573;51.446;-2.018;2023-09-07T00:02:59;100619.69;;;21.43;100.00
55679;BME280;41573;51.446;-2.018;2023-09-07T00:05:25;100630.16;;;21.38;100.00
55679;BME280;41573;51.446;-2.018;2023-09-07T00:07:50;100661.28;;;21.34;100.00
55679;BME280;41573;51.446;-2.018;2023-09-07T00:10:15;100664.28;;;21.23;100.00
55679;BME280;41573;51.446;-2.018;2023-09-07T00:12:42;100660.03;;;21.20;100.00
55679;BME280;41573;51.446;-2.018;2023-09-07T00:15:08;100654.78;;;21.18;100.00
55679;BME280;41573;51.446;-2.018;2023-09-07T00:17:33;100650.50;;;21.16;100.00
55679;BME280;41573;51.446;-2.018;2023-09-07T00:19:59;100655.94;;;21.16;100.00
55679;BME280;41573;51.446;-2.018;2023-09-07T00:22:24;100658.13;;;21.12;100.00
55679;BME280;41573;51.446;-2.018;2023-09-07T00:24:52;100660.94;;;21.03;100.00
55679;BME280;41573;51.446;-2.018;2023-09-07T00:27:17;100662.50;;;21.05;100.00
55679;BME280;41573;51.446;-2.018;2023-09-07T00:29:43;100673.31;;;21.05;100.00
55679;BME280;41573;51.446;-2.018;2023-09-07T00:32:08;100690.22;;;21.07;100.00
55679;BME280;41573;51.446;-2.018;2023-09-07T00:34:34;100707.81;;;21.03;100.00
55679;BME280;41573;51.446;-2.018;2023-09-07T00:37:00;100719.94;;;20.99;100.00
55679;BME280;41573;51.446;-2.018;2023-09-07T00:39:25;100784.75;;;21.00;100.00
55679;BME280;41573;51.446;-2.018;2023-09-07T00:41:50;100830.94;;;20.99;100.00
55679;BME280;41573;51.446;-2.018;2023-09-07T00:44:15;100885.09;;;20.99;100.00
55679;BME280;41573;51.446;-2.018;2023-09-07T00:46:41;100985.72;;;20.94;100.00
55679;BME280;41573;51.446;-2.018;2023-09-07T00:49:06;101833.78;;;20.98;100.00
55679;BME280;41573;51.446;-2.018;2023-09-07T00:51:32;101829.78;;;21.02;100.00
55679;BME280;41573;51.446;-2.018;2023-09-07T00:53:57;101827.69;;;21.06;100.00
55679;BME280;41573;51.446;-2.018;2023-09-07T00:56:24;101799.50;;;21.08;100.00
55679;BME280;41573;51.446;-2.018;2023-09-07T00:58:50;101798.25;;;21.12;100.00
55679;BME280;41573;51.446;-2.018;2023-09-07T01:01:16;101796.25;;;21.14;100.00
55679;BME280;41573;51.446;-2.018;2023-09-07T01:03:42;101791.81;;;21.13;100.00
55679;BME280;41573;51.446;-2.018;2023-09-07T01:06:18;101781.19;;;21.00;100.00
55679;BME280;41573;51.446;-2.018;2023-09-07T01:08:45;101779.69;;;20.87;100.00
55679;BME280;41573;51.446;-2.018;2023-09-07T01:11:15;101778.22;;;20.82;100.00
55679;BME280;41573;51.446;-2.018;2023-09-07T01:13:40;101771.66;;;20.85;100.00
55679;BME280;41573;51.446;-2.018;2023-09-07T01:16:06;101761.56;;;20.87;100.00
55679;BME280;41573;51.446;-2.018;2023-09-07T01:18:32;101755.19;;;20.88;100.00
55679;BME280;41573;51.446;-2.018;2023-09-07T01:20:57;101752.34;;;20.90;100.00
55679;BME280;41573;51.446;-2.018;2023-09-07T01:23:23;101753.94;;;20.92;100.00
55679;BME280;41573;51.446;-2.018;2023-09-07T01:25:48;101739.25;;;20.95;100.00
55679;BME280;41573;51.446;-2.018;2023-09-07T01:28:14;101734.56;;;20.97;100.00
55679;BME280;41573;51.446;-2.018;2023-09-07T01:30:40;101733.13;;;20.93;100.00
55679;BME280;41573;51.446;-2.018;2023-09-07T01:33:05;101730.06;;;20.86;100.00
55679;BME280;41573;51.446;-2.018;2023-09-07T01:35:31;101735.47;;;20.86;100.00
55679;BME280;41573;51.446;-2.018;2023-09-07T01:37:57;101726.66;;;20.84;100.00
55679;BME280;41573;51.446;-2.018;2023-09-07T01:40:22;101720.34;;;20.83;100.00
55679;BME280;41573;51.446;-2.018;2023-09-07T01:42:47;101722.06;;;20.84;100.00
55679;BME280;41573;51.446;-2.018;2023-09-07T01:45:13;101716.66;;;20.84;100.00
55679;BME280;41573;51.446;-2.018;2023-09-07T01:47:38;101712.22;;;20.83;100.00
55679;BME280;41573;51.446;-2.018;2023-09-07T01:50:03;101712.97;;;20.86;100.00
55679;BME280;41573;51.446;-2.018;2023-09-07T01:52:28;101706.59;;;20.87;100.00
55679;BME280;41573;51.446;-2.018;2023-09-07T01:54:55;101693.88;;;20.87;100.00
55679;BME280;41573;51.446;-2.018;2023-09-07T01:57:20;101687.63;;;20.87;100.00
55679;BME280;41573;51.446;-2.018;2023-09-07T01:59:45;101686.88;;;20.84;100.00
55679;BME280;41573;51.446;-2.018;2023-09-07T02:02:13;101683.34;;;20.84;100.00
55679;BME280;41573;51.446;-2.018;2023-09-07T02:04:38;101682.44;;;20.83;100.00
55679;BME280;41573;51.446;-2.018;2023-09-07T02:07:03;101675.34;;;20.82;100.00
55679;BME280;41573;51.446;-2.018;2023-09-07T02:09:29;101669.31;;;20.79;100.00
55679;BME280;41573;51.446;-2.018;2023-09-07T02:11:55;101674.16;;;20.75;100.00
55679;BME280;41573;51.446;-2.018;2023-09-07T02:14:20;101677.09;;;20.72;100.00
55679;BME280;41573;51.446;-2.018;2023-09-07T02:16:45;101682.06;;;20.67;100.00
55679;BME280;41573;51.446;-2.018;2023-09-07T02:19:10;101687.97;;;20.61;100.00
55679;BME280;41573;51.446;-2.018;2023-09-07T02:21:36;101695.63;;;20.56;100.00
55679;BME280;41573;51.446;-2.018;2023-09-07T02:24:01;101722.97;;;20.53;100.00
55679;BME280;41573;51.446;-2.018;2023-09-07T02:26:26;101680.91;;;20.48;100.00
55679;BME280;41573;51.446;-2.018;2023-09-07T02:28:51;101678.47;;;20.45;100.00
55679;BME280;41573;51.446;-2.018;2023-09-07T02:31:17;101674.03;;;20.44;100.00
55679;BME280;41573;51.446;-2.018;2023-09-07T02:33:42;101674.91;;;20.45;100.00
55679;BME280;41573;51.446;-2.018;2023-09-07T02:36:07;101675.78;;;20.45;100.00
55679;BME280;41573;51.446;-2.018;2023-09-07T02:38:32;101667.66;;;20.45;100.00
55679;BME280;41573;51.446;-2.018;2023-09-07T02:40:58;101665.66;;;20.47;100.00
55679;BME280;41573;51.446;-2.018;2023-09-07T02:43:23;101654.84;;;20.47;100.00
55679;BME280;41573;51.446;-2.018;2023-09-07T02:45:49;101629.50;;;20.48;100.00
55679;BME280;41573;51.446;-2.018;2023-09-07T02:48:15;101627.66;;;20.49;100.00
55679;BME280;41573;51.446;-2.018;2023-09-07T02:50:40;101623.09;;;20.49;100.00
55679;BME280;41573;51.446;-2.018;2023-09-07T02:53:05;101627.78;;;20.47;100.00
55679;BME280;41573;51.446;-2.018;2023-09-07T02:55:31;101620.91;;;20.43;100.00
55679;BME280;41573;51.446;-2.018;2023-09-07T02:57:56;101615.16;;;20.37;100.00
55679;BME280;41573;51.446;-2.018;2023-09-07T03:00:22;101617.28;;;20.33;100.00
55679;BME280;41573;51.446;-2.018;2023-09-07T03:02:47;101622.09;;;20.29;100.00
55679;BME280;41573;51.446;-2.018;2023-09-07T03:05:13;101628.38;;;20.30;100.00
55679;BME280;41573;51.446;-2.018;2023-09-07T03:07:39;101630.34;;;20.28;100.00
55679;BME280;41573;51.446;-2.018;2023-09-07T03:10:04;101617.47;;;20.20;100.00
55679;BME280;41573;51.446;-2.018;2023-09-07T03:12:30;101605.84;;;20.08;100.00
55679;BME280;41573;51.446;-2.018;2023-09-07T03:14:55;101620.38;;;20.07;100.00
55679;BME280;41573;51.446;-2.018;2023-09-07T03:17:20;101615.22;;;20.04;100.00
55679;BME280;41573;51.446;-2.018;2023-09-07T03:19:48;101611.78;;;20.02;100.00
55679;BME280;41573;51.446;-2.018;2023-09-07T03:22:14;101607.25;;;20.03;100.00
55679;BME280;41573;51.446;-2.018;2023-09-07T03:24:39;101584.47;;;20.05;100.00
55679;BME280;41573;51.446;-2.018;2023-09-07T03:27:05;101574.41;;;20.07;100.00
55679;BME280;41573;51.446;-2.018;2023-09-07T03:29:33;101574.41;;;20.07;100.00
55679;BME280;41573;51.446;-2.018;2023-09-07T03:32:00;101559.41;;;20.03;100.00
55679;BME280;41573;51.446;-2.018;2023-09-07T03:34:25;101554.00;;;20.03;100.00
55679;BME280;41573;51.446;-2.018;2023-09-07T03:36:51;101557.56;;;20.04;100.00
55679;BME280;41573;51.446;-2.018;2023-09-07T03:39:17;101551.31;;;20.03;100.00
55679;BME280;41573;51.446;-2.018;2023-09-07T03:41:43;101548.00;;;20.00;100.00
55679;BME280;41573;51.446;-2.018;2023-09-07T03:44:09;101546.31;;;19.98;100.00
55679;BME280;41573;51.446;-2.018;2023-09-07T03:46:34;101555.53;;;19.96;100.00
55679;BME280;41573;51.446;-2.018;2023-09-07T03:48:59;101547.91;;;19.90;100.00
55679;BME280;41573;51.446;-2.018;2023-09-07T03:51:24;101536.88;;;19.93;100.00
55679;BME280;41573;51.446;-2.018;2023-09-07T03:53:49;101526.06;;;19.93;100.00
55679;BME280;41573;51.446;-2.018;2023-09-07T03:56:15;101512.69;;;19.91;100.00
55679;BME280;41573;51.446;-2.018;2023-09-07T03:58:40;101498.41;;;19.89;100.00
55679;BME280;41573;51.446;-2.018;2023-09-07T04:01:05;101497.56;;;19.89;100.00
55679;BME280;41573;51.446;-2.018;2023-09-07T04:03:31;101496.13;;;19.85;100.00
55679;BME280;41573;51.446;-2.018;2023-09-07T04:05:56;101471.78;;;19.85;100.00
55679;BME280;41573;51.446;-2.018;2023-09-07T04:08:22;101474.97;;;19.78;100.00
55679;BME280;41573;51.446;-2.018;2023-09-07T04:10:47;101473.28;;;19.77;100.00
55679;BME280;41573;51.446;-2.018;2023-09-07T04:13:12;101459.28;;;19.72;100.00
55679;BME280;41573;51.446;-2.018;2023-09-07T04:15:44;101465.22;;;19.66;100.00
55679;BME280;41573;51.446;-2.018;2023-09-07T04:18:10;101449.50;;;19.60;100.00
55679;BME280;41573;51.446;-2.018;2023-09-07T04:20:37;101455.19;;;19.57;100.00
55679;BME280;41573;51.446;-2.018;2023-09-07T04:23:02;101443.53;;;19.56;100.00
55679;BME280;41573;51.446;-2.018;2023-09-07T04:25:28;101431.97;;;19.54;100.00
55679;BME280;41573;51.446;-2.018;2023-09-07T04:27:53;101434.38;;;19.48;100.00
55679;BME280;41573;51.446;-2.018;2023-09-07T04:30:18;101421.13;;;19.44;100.00
55679;BME280;41573;51.446;-2.018;2023-09-07T04:32:43;101421.34;;;19.41;100.00
55679;BME280;41573;51.446;-2.018;2023-09-07T04:35:09;101435.00;;;19.40;100.00
55679;BME280;41573;51.446;-2.018;2023-09-07T04:37:34;101463.59;;;19.42;100.00
55679;BME280;41573;51.446;-2.018;2023-09-07T04:39:59;101560.56;;;19.45;100.00
55679;BME280;41573;51.446;-2.018;2023-09-07T04:42:24;101556.91;;;19.46;100.00
55679;BME280;41573;51.446;-2.018;2023-09-07T04:44:50;101530.72;;;19.47;100.00
55679;BME280;41573;51.446;-2.018;2023-09-07T04:47:15;101505.44;;;19.48;100.00
55679;BME280;41573;51.446;-2.018;2023-09-07T04:49:41;101550.50;;;19.48;100.00
55679;BME280;41573;51.446;-2.018;2023-09-07T04:52:06;101544.97;;;19.49;100.00
55679;BME280;41573;51.446;-2.018;2023-09-07T04:54:32;101546.72;;;19.50;100.00
55679;BME280;41573;51.446;-2.018;2023-09-07T04:56:57;101532.19;;;19.51;100.00
55679;BME280;41573;51.446;-2.018;2023-09-07T04:59:22;101532.06;;;19.53;100.00
55679;BME280;41573;51.446;-2.018;2023-09-07T05:01:47;101523.25;;;19.51;100.00
55679;BME280;41573;51.446;-2.018;2023-09-07T05:04:13;101521.53;;;19.50;100.00
55679;BME280;41573;51.446;-2.018;2023-09-07T05:06:38;101509.75;;;19.51;100.00
55679;BME280;41573;51.446;-2.018;2023-09-07T05:09:05;101508.00;;;19.50;100.00
55679;BME280;41573;51.446;-2.018;2023-09-07T05:11:30;101525.19;;;19.49;100.00
55679;BME280;41573;51.446;-2.018;2023-09-07T05:13:56;101526.34;;;19.46;100.00
55679;BME280;41573;51.446;-2.018;2023-09-07T05:16:21;101523.88;;;19.43;100.00
55679;BME280;41573;51.446;-2.018;2023-09-07T05:18:46;101482.63;;;19.41;100.00
55679;BME280;41573;51.446;-2.018;2023-09-07T05:21:14;101467.53;;;19.38;100.00
55679;BME280;41573;51.446;-2.018;2023-09-07T05:23:40;101465.81;;;19.37;100.00
55679;BME280;41573;51.446;-2.018;2023-09-07T05:26:06;101462.41;;;19.35;100.00
55679;BME280;41573;51.446;-2.018;2023-09-07T05:28:31;101457.84;;;19.36;100.00
55679;BME280;41573;51.446;-2.018;2023-09-07T05:30:56;101458.97;;;19.33;100.00
55679;BME280;41573;51.446;-2.018;2023-09-07T05:33:21;101443.75;;;19.32;100.00
55679;BME280;41573;51.446;-2.018;2023-09-07T05:35:47;101430.66;;;19.27;100.00
55679;BME280;41573;51.446;-2.018;2023-09-07T05:38:12;101432.00;;;19.22;100.00
55679;BME280;41573;51.446;-2.018;2023-09-07T05:40:38;101436.81;;;19.18;100.00
55679;BME280;41573;51.446;-2.018;2023-09-07T05:43:04;101439.91;;;19.14;100.00
55679;BME280;41573;51.446;-2.018;2023-09-07T05:45:36;101441.00;;;19.11;100.00
55679;BME280;41573;51.446;-2.018;2023-09-07T05:48:02;101445.31;;;19.02;100.00
55679;BME280;41573;51.446;-2.018;2023-09-07T05:50:28;101454.78;;;18.97;100.00
55679;BME280;41573;51.446;-2.018;2023-09-07T05:52:53;101442.88;;;18.99;100.00
55679;BME280;41573;51.446;-2.018;2023-09-07T05:55:18;101366.56;;;18.97;100.00
55679;BME280;41573;51.446;-2.018;2023-09-07T05:57:44;101356.63;;;18.98;100.00
55679;BME280;41573;51.446;-2.018;2023-09-07T06:00:09;101397.00;;;18.99;100.00
55679;BME280;41573;51.446;-2.018;2023-09-07T06:02:34;101395.84;;;19.02;100.00
55679;BME280;41573;51.446;-2.018;2023-09-07T06:05:00;101389.34;;;19.04;100.00
55679;BME280;41573;51.446;-2.018;2023-09-07T06:07:26;101387.13;;;19.09;100.00
55679;BME280;41573;51.446;-2.018;2023-09-07T06:09:51;101380.50;;;19.14;100.00
55679;BME280;41573;51.446;-2.018;2023-09-07T06:12:16;101361.19;;;19.18;100.00
55679;BME280;41573;51.446;-2.018;2023-09-07T06:14:41;101358.09;;;19.23;100.00
55679;BME280;41573;51.446;-2.018;2023-09-07T06:17:06;101354.28;;;19.25;100.00
55679;BME280;41573;51.446;-2.018;2023-09-07T06:19:32;101346.66;;;19.31;100.00
55679;BME280;41573;51.446;-2.018;2023-09-07T06:21:57;101348.97;;;19.35;100.00
55679;BME280;41573;51.446;-2.018;2023-09-07T06:24:23;101359.50;;;19.38;100.00
55679;BME280;41573;51.446;-2.018;2023-09-07T06:26:48;101354.84;;;19.40;100.00
55679;BME280;41573;51.446;-2.018;2023-09-07T06:29:14;101360.81;;;19.44;100.00
55679;BME280;41573;51.446;-2.018;2023-09-07T06:31:40;101344.47;;;19.45;100.00
55679;BME280;41573;51.446;-2.018;2023-09-07T06:34:05;101338.38;;;19.43;100.00
55679;BME280;41573;51.446;-2.018;2023-09-07T06:36:30;101337.38;;;19.44;100.00
55679;BME280;41573;51.446;-2.018;2023-09-07T06:38:56;101340.81;;;19.46;100.00
55679;BME280;41573;51.446;-2.018;2023-09-07T06:41:21;101339.69;;;19.49;100.00
55679;BME280;41573;51.446;-2.018;2023-09-07T06:43:46;101357.47;;;19.52;100.00
55679;BME280;41573;51.446;-2.018;2023-09-07T06:46:11;101359.91;;;19.55;100.00
55679;BME280;41573;51.446;-2.018;2023-09-07T06:48:37;101355.09;;;19.58;100.00
55679;BME280;41573;51.446;-2.018;2023-09-07T06:51:03;101365.88;;;19.58;100.00
55679;BME280;41573;51.446;-2.018;2023-09-07T06:53:29;101364.50;;;19.64;100.00
55679;BME280;41573;51.446;-2.018;2023-09-07T06:55:58;101359.56;;;19.69;100.00
55679;BME280;41573;51.446;-2.018;2023-09-07T06:58:23;101362.00;;;19.72;100.00
55679;BME280;41573;51.446;-2.018;2023-09-07T07:00:48;101351.78;;;19.76;100.00
55679;BME280;41573;51.446;-2.018;2023-09-07T07:03:14;101352.41;;;19.79;100.00
55679;BME280;41573;51.446;-2.018;2023-09-07T07:05:39;101350.16;;;19.85;100.00
55679;BME280;41573;51.446;-2.018;2023-09-07T07:08:04;101349.88;;;19.88;100.00
55679;BME280;41573;51.446;-2.018;2023-09-07T07:10:29;101356.59;;;19.93;100.00
55679;BME280;41573;51.446;-2.018;2023-09-07T07:12:55;101363.31;;;19.99;100.00
55679;BME280;41573;51.446;-2.018;2023-09-07T07:15:20;101366.22;;;20.07;100.00
55679;BME280;41573;51.446;-2.018;2023-09-07T07:17:45;101363.69;;;20.15;100.00
55679;BME280;41573;51.446;-2.018;2023-09-07T07:20:10;101368.13;;;20.26;100.00
55679;BME280;41573;51.446;-2.018;2023-09-07T07:22:36;101380.69;;;20.37;100.00
55679;BME280;41573;51.446;-2.018;2023-09-07T07:25:01;101389.97;;;20.44;100.00
55679;BME280;41573;51.446;-2.018;2023-09-07T07:27:30;101405.66;;;20.50;100.00
55679;BME280;41573;51.446;-2.018;2023-09-07T07:29:55;101416.19;;;20.54;100.00
55679;BME280;41573;51.446;-2.018;2023-09-07T07:32:21;101430.75;;;20.53;100.00
55679;BME280;41573;51.446;-2.018;2023-09-07T07:34:46;101441.41;;;20.54;100.00
55679;BME280;41573;51.446;-2.018;2023-09-07T07:37:12;101460.78;;;20.59;100.00
55679;BME280;41573;51.446;-2.018;2023-09-07T07:39:37;101464.78;;;20.65;100.00
55679;BME280;41573;51.446;-2.018;2023-09-07T07:42:02;101477.25;;;20.67;100.00
55679;BME280;41573;51.446;-2.018;2023-09-07T07:44:29;101490.34;;;20.72;100.00
55679;BME280;41573;51.446;-2.018;2023-09-07T07:46:54;101510.88;;;20.75;100.00
55679;BME280;41573;51.446;-2.018;2023-09-07T07:49:20;101516.88;;;20.78;100.00
55679;BME280;41573;51.446;-2.018;2023-09-07T07:51:45;101534.44;;;20.84;100.00
55679;BME280;41573;51.446;-2.018;2023-09-07T07:54:10;101541.44;;;20.87;100.00
55679;BME280;41573;51.446;-2.018;2023-09-07T07:56:35;101549.97;;;20.92;100.00
55679;BME280;41573;51.446;-2.018;2023-09-07T07:59:01;101554.13;;;20.96;100.00
55679;BME280;41573;51.446;-2.018;2023-09-07T08:01:27;101558.44;;;20.98;100.00
55679;BME280;41573;51.446;-2.018;2023-09-07T08:03:52;101565.16;;;21.04;100.00
55679;BME280;41573;51.446;-2.018;2023-09-07T08:06:17;101577.41;;;21.08;100.00
55679;BME280;41573;51.446;-2.018;2023-09-07T08:08:42;101584.28;;;21.12;100.00
55679;BME280;41573;51.446;-2.018;2023-09-07T08:11:08;101594.28;;;21.22;100.00
55679;BME280;41573;51.446;-2.018;2023-09-07T08:13:33;101606.88;;;21.32;100.00
55679;BME280;41573;51.446;-2.018;2023-09-07T08:16:02;101615.16;;;21.41;100.00
55679;BME280;41573;51.446;-2.018;2023-09-07T08:18:28;101634.75;;;21.54;100.00
55679;BME280;41573;51.446;-2.018;2023-09-07T08:20:53;101644.63;;;21.65;100.00
55679;BME280;41573;51.446;-2.018;2023-09-07T08:23:20;101664.22;;;21.78;100.00
55679;BME280;41573;51.446;-2.018;2023-09-07T08:25:46;101680.22;;;21.91;100.00
55679;BME280;41573;51.446;-2.018;2023-09-07T08:28:11;101704.63;;;22.01;100.00
55679;BME280;41573;51.446;-2.018;2023-09-07T08:30:37;101711.22;;;22.08;100.00
55679;BME280;41573;51.446;-2.018;2023-09-07T08:33:02;101723.22;;;22.15;100.00
55679;BME280;41573;51.446;-2.018;2023-09-07T08:35:29;101736.94;;;22.24;100.00
55679;BME280;41573;51.446;-2.018;2023-09-07T08:37:55;101746.97;;;22.33;100.00
55679;BME280;41573;51.446;-2.018;2023-09-07T08:40:23;101750.84;;;22.40;100.00
55679;BME280;41573;51.446;-2.018;2023-09-07T08:42:48;101771.84;;;22.48;100.00
55679;BME280;41573;51.446;-2.018;2023-09-07T08:45:14;101785.44;;;22.58;100.00
55679;BME280;41573;51.446;-2.018;2023-09-07T08:47:43;101792.84;;;22.65;100.00
55679;BME280;41573;51.446;-2.018;2023-09-07T08:50:10;101793.59;;;22.77;100.00
55679;BME280;41573;51.446;-2.018;2023-09-07T08:52:35;101802.72;;;22.86;100.00
55679;BME280;41573;51.446;-2.018;2023-09-07T08:55:01;101803.72;;;22.95;100.00
55679;BME280;41573;51.446;-2.018;2023-09-07T08:57:29;101813.00;;;23.02;100.00
55679;BME280;41573;51.446;-2.018;2023-09-07T08:59:54;101817.84;;;23.08;100.00
55679;BME280;41573;51.446;-2.018;2023-09-07T09:02:20;101822.13;;;23.11;100.00
55679;BME280;41573;51.446;-2.018;2023-09-07T09:04:45;101834.31;;;23.16;100.00
55679;BME280;41573;51.446;-2.018;2023-09-07T09:07:10;101834.75;;;23.21;100.00
55679;BME280;41573;51.446;-2.018;2023-09-07T09:09:36;101847.03;;;23.26;100.00
55679;BME280;41573;51.446;-2.018;2023-09-07T09:12:06;101846.31;;;23.33;100.00
55679;BME280;41573;51.446;-2.018;2023-09-07T09:14:32;101844.28;;;23.45;100.00
55679;BME280;41573;51.446;-2.018;2023-09-07T09:16:57;101843.13;;;23.48;100.00
55679;BME280;41573;51.446;-2.018;2023-09-07T09:19:32;101852.09;;;23.58;100.00
55679;BME280;41573;51.446;-2.018;2023-09-07T09:21:57;101854.81;;;23.68;100.00
55679;BME280;41573;51.446;-2.018;2023-09-07T09:24:23;101838.16;;;23.81;100.00
55679;BME280;41573;51.446;-2.018;2023-09-07T09:26:48;101844.84;;;23.86;100.00
55679;BME280;41573;51.446;-2.018;2023-09-07T09:29:13;101853.75;;;23.98;100.00
55679;BME280;41573;51.446;-2.018;2023-09-07T09:31:40;101860.84;;;24.09;100.00
55679;BME280;41573;51.446;-2.018;2023-09-07T09:34:05;101851.47;;;24.21;100.00
55679;BME280;41573;51.446;-2.018;2023-09-07T09:36:35;101855.28;;;24.29;100.00
55679;BME280;41573;51.446;-2.018;2023-09-07T09:39:00;101874.16;;;24.40;100.00
55679;BME280;41573;51.446;-2.018;2023-09-07T09:41:26;101859.91;;;24.46;100.00
55679;BME280;41573;51.446;-2.018;2023-09-07T09:43:52;101852.88;;;24.53;100.00
55679;BME280;41573;51.446;-2.018;2023-09-07T09:46:17;101850.81;;;24.65;100.00
55679;BME280;41573;51.446;-2.018;2023-09-07T09:48:42;101861.94;;;24.72;100.00
55679;BME280;41573;51.446;-2.018;2023-09-07T09:51:08;101847.84;;;24.76;100.00
55679;BME280;41573;51.446;-2.018;2023-09-07T09:53:38;101846.69;;;24.79;100.00
55679;BME280;41573;51.446;-2.018;2023-09-07T09:56:03;101841.63;;;24.84;100.00
55679;BME280;41573;51.446;-2.018;2023-09-07T09:58:28;101850.59;;;24.94;100.00
55679;BME280;41573;51.446;-2.018;2023-09-07T10:00:54;101841.44;;;25.04;100.00
55679;BME280;41573;51.446;-2.018;2023-09-07T10:05:48;101836.59;;;25.16;100.00
55679;BME280;41573;51.446;-2.018;2023-09-07T10:08:15;101816.59;;;25.25;100.00
55679;BME280;41573;51.446;-2.018;2023-09-07T10:10:42;101796.78;;;25.41;100.00
55679;BME280;41573;51.446;-2.018;2023-09-07T10:13:08;101784.25;;;25.56;100.00
55679;BME280;41573;51.446;-2.018;2023-09-07T10:15:33;101749.69;;;25.65;100.00
55679;BME280;41573;51.446;-2.018;2023-09-07T10:18:13;101758.75;;;25.74;100.00
55679;BME280;41573;51.446;-2.018;2023-09-07T10:20:49;101748.09;;;25.89;100.00
55679;BME280;41573;51.446;-2.018;2023-09-07T10:23:15;101694.06;;;26.01;100.00
55679;BME280;41573;51.446;-2.018;2023-09-07T10:25:40;101679.09;;;26.13;100.00
55679;BME280;41573;51.446;-2.018;2023-09-07T10:28:05;101702.97;;;26.19;100.00
55679;BME280;41573;51.446;-2.018;2023-09-07T10:30:30;101650.09;;;26.28;100.00
55679;BME280;41573;51.446;-2.018;2023-09-07T10:32:57;101524.50;;;26.37;100.00
55679;BME280;41573;51.446;-2.018;2023-09-07T10:35:23;101395.75;;;26.48;100.00
55679;BME280;41573;51.446;-2.018;2023-09-07T10:37:50;101384.78;;;26.56;100.00
55679;BME280;41573;51.446;-2.018;2023-09-07T10:40:19;101393.31;;;26.70;100.00
55679;BME280;41573;51.446;-2.018;2023-09-07T10:42:44;101303.44;;;26.75;100.00
55679;BME280;41573;51.446;-2.018;2023-09-07T10:45:13;101199.63;;;26.75;100.00
55679;BME280;41573;51.446;-2.018;2023-09-07T10:47:44;101112.78;;;26.85;100.00
55679;BME280;41573;51.446;-2.018;2023-09-07T10:50:11;101039.28;;;26.90;100.00
55679;BME280;41573;51.446;-2.018;2023-09-07T10:52:37;100961.75;;;26.91;100.00
55679;BME280;41573;51.446;-2.018;2023-09-07T10:55:03;100915.28;;;26.91;100.00
55679;BME280;41573;51.446;-2.018;2023-09-07T10:57:28;100897.06;;;26.98;100.00
55679;BME280;41573;51.446;-2.018;2023-09-07T10:59:54;100875.50;;;27.04;100.00
55679;BME280;41573;51.446;-2.018;2023-09-07T11:02:20;100856.59;;;27.09;100.00
55679;BME280;41573;51.446;-2.018;2023-09-07T11:04:45;100837.97;;;27.19;100.00
55679;BME280;41573;51.446;-2.018;2023-09-07T11:07:11;100820.63;;;27.27;100.00
55679;BME280;41573;51.446;-2.018;2023-09-07T11:09:40;100796.75;;;27.35;100.00
55679;BME280;41573;51.446;-2.018;2023-09-07T11:12:05;100783.53;;;27.39;100.00
55679;BME280;41573;51.446;-2.018;2023-09-07T11:14:31;100764.41;;;27.46;100.00
55679;BME280;41573;51.446;-2.018;2023-09-07T11:16:56;100760.00;;;27.45;100.00
55679;BME280;41573;51.446;-2.018;2023-09-07T11:19:21;100750.38;;;27.56;100.00
55679;BME280;41573;51.446;-2.018;2023-09-07T11:21:47;100748.88;;;27.53;100.00
55679;BME280;41573;51.446;-2.018;2023-09-07T11:24:13;100740.53;;;27.61;100.00
55679;BME280;41573;51.446;-2.018;2023-09-07T11:26:44;100730.88;;;27.65;100.00
55679;BME280;41573;51.446;-2.018;2023-09-07T11:29:13;100723.97;;;27.69;100.00
55679;BME280;41573;51.446;-2.018;2023-09-07T11:31:38;100706.94;;;27.74;100.00
55679;BME280;41573;51.446;-2.018;2023-09-07T11:34:08;100707.59;;;27.76;100.00
55679;BME280;41573;51.446;-2.018;2023-09-07T11:36:33;100696.66;;;27.83;100.00
55679;BME280;41573;51.446;-2.018;2023-09-07T11:38:58;100692.88;;;27.84;100.00
55679;BME280;41573;51.446;-2.018;2023-09-07T11:41:23;100690.59;;;27.94;100.00
55679;BME280;41573;51.446;-2.018;2023-09-07T11:43:49;100681.63;;;28.00;100.00
55679;BME280;41573;51.446;-2.018;2023-09-07T11:46:14;100676.59;;;28.11;100.00
55679;BME280;41573;51.446;-2.018;2023-09-07T11:48:40;100670.06;;;28.12;100.00
55679;BME280;41573;51.446;-2.018;2023-09-07T11:51:05;100667.53;;;28.17;100.00
55679;BME280;41573;51.446;-2.018;2023-09-07T11:53:31;100661.66;;;28.27;100.00
55679;BME280;41573;51.446;-2.018;2023-09-07T11:55:56;100645.28;;;28.40;100.00
55679;BME280;41573;51.446;-2.018;2023-09-07T11:58:22;100645.69;;;28.44;100.00
55679;BME280;41573;51.446;-2.018;2023-09-07T12:00:49;100640.00;;;28.52;100.00
55679;BME280;41573;51.446;-2.018;2023-09-07T12:03:15;100643.81;;;28.58;100.00
55679;BME280;41573;51.446;-2.018;2023-09-07T12:05:40;100638.13;;;28.59;100.00
55679;BME280;41573;51.446;-2.018;2023-09-07T12:08:07;100636.25;;;28.66;100.00
55679;BME280;41573;51.446;-2.018;2023-09-07T12:10:32;100635.22;;;28.67;100.00
55679;BME280;41573;51.446;-2.018;2023-09-07T12:12:58;100636.47;;;28.65;100.00
55679;BME280;41573;51.446;-2.018;2023-09-07T12:15:23;100630.56;;;28.68;100.00
55679;BME280;41573;51.446;-2.018;2023-09-07T12:17:49;100632.25;;;28.69;100.00
55679;BME280;41573;51.446;-2.018;2023-09-07T12:20:19;100629.09;;;28.72;100.00
55679;BME280;41573;51.446;-2.018;2023-09-07T12:22:44;100637.09;;;28.74;100.00
55679;BME280;41573;51.446;-2.018;2023-09-07T12:25:09;100632.44;;;28.81;100.00